Macy, Nebraska
Current Conditions -  °F | °C
As of 5:52 PM on Friday 19 Dec 2014 (Local Time) from KSUX Reporting Station
Overcast Overcast  
Wind Chill: 26°   Ceiling: 1400
Heat Index: 34°   Visibility: 10mi
Dew Point: 28°   Wind: 10mph
Humidity: 79%   Direction: 180°S
Pressure: 30.13"   Gusts: NA
Location:  42.11°N, 96.36°W
Report Text: KSUX 192352Z AUTO 18009KT 10SM OVC014 01/M02 A3013 RMK AO2 SLP215 T00111022 10017 20011 58001
Loading
Personal Weather Stations






























Interactive Weather Map New forecast layout! Learn more

10-Day Weather Forecast

Advertisements
Track Severe Weather on mobile